Rockwood, Tennessee
Current Conditions -  °F | °C
As of 2:53 AM on Friday 24 Oct 2014 (Local Time) from KCSV Reporting Station
Clear Clear  
Wind Chill: 47°   Ceiling: Unl
Heat Index: 47°   Visibility: 10mi
Dew Point: 41°   Wind: 3mph
Humidity: 80%   Direction: 50°NE
Pressure: 30.09"   Gusts: NA
Location:  35.87°N, 84.68°W
Report Text: KCSV 240653Z AUTO 05003KT 10SM CLR 08/05 A3009 RMK AO2 SLP183 T00830050
Loading
Personal Weather Stations






























Interactive Weather Map
Tropical Storm Tracking
New forecast layout! Learn more

10-Day Weather Forecast

Advertisements
Track Severe Weather on mobile